sensor_id;sensor_type;location;lat;lon;timestamp;temperature;humidity
10070;DHT22;5074;53.720;10.014;2022-09-24T00:01:42;11.40;99.90
10070;DHT22;5074;53.720;10.014;2022-09-24T00:04:11;11.40;99.90
10070;DHT22;5074;53.720;10.014;2022-09-24T00:06:40;11.40;99.90
10070;DHT22;5074;53.720;10.014;2022-09-24T00:09:10;11.40;99.90
10070;DHT22;5074;53.720;10.014;2022-09-24T00:11:39;11.30;99.90
10070;DHT22;5074;53.720;10.014;2022-09-24T00:14:08;11.30;99.90
10070;DHT22;5074;53.720;10.014;2022-09-24T00:16:37;11.30;99.90
10070;DHT22;5074;53.720;10.014;2022-09-24T00:19:08;11.30;99.90
10070;DHT22;5074;53.720;10.014;2022-09-24T00:21:38;11.30;99.90
10070;DHT22;5074;53.720;10.014;2022-09-24T00:24:07;11.20;99.90
10070;DHT22;5074;53.720;10.014;2022-09-24T00:26:37;11.30;99.90
10070;DHT22;5074;53.720;10.014;2022-09-24T00:29:16;11.20;99.90
10070;DHT22;5074;53.720;10.014;2022-09-24T00:31:45;11.30;99.90
10070;DHT22;5074;53.720;10.014;2022-09-24T00:34:15;11.30;99.90
10070;DHT22;5074;53.720;10.014;2022-09-24T00:36:43;11.40;99.90
10070;DHT22;5074;53.720;10.014;2022-09-24T00:39:12;11.40;99.90
10070;DHT22;5074;53.720;10.014;2022-09-24T00:41:41;11.40;99.90
10070;DHT22;5074;53.720;10.014;2022-09-24T00:47:23;11.50;99.90
10070;DHT22;5074;53.720;10.014;2022-09-24T00:50:02;11.50;99.90
10070;DHT22;5074;53.720;10.014;2022-09-24T00:52:34;11.50;99.90
10070;DHT22;5074;53.720;10.014;2022-09-24T00:55:06;11.50;99.90
10070;DHT22;5074;53.720;10.014;2022-09-24T00:57:35;11.50;99.90
10070;DHT22;5074;53.720;10.014;2022-09-24T01:00:05;11.50;99.90
10070;DHT22;5074;53.720;10.014;2022-09-24T01:02:35;11.40;99.90
10070;DHT22;5074;53.720;10.014;2022-09-24T01:05:07;11.40;99.90
10070;DHT22;5074;53.720;10.014;2022-09-24T01:07:36;11.30;99.90
10070;DHT22;5074;53.720;10.014;2022-09-24T01:10:04;11.30;99.90
10070;DHT22;5074;53.720;10.014;2022-09-24T01:12:34;11.30;99.90
10070;DHT22;5074;53.720;10.014;2022-09-24T01:15:16;11.30;99.90
10070;DHT22;5074;53.720;10.014;2022-09-24T01:17:52;11.20;99.90
10070;DHT22;5074;53.720;10.014;2022-09-24T01:26:30;11.10;99.90
10070;DHT22;5074;53.720;10.014;2022-09-24T01:29:27;11.20;99.90
10070;DHT22;5074;53.720;10.014;2022-09-24T01:31:58;11.20;99.90
10070;DHT22;5074;53.720;10.014;2022-09-24T01:34:32;11.20;99.90
10070;DHT22;5074;53.720;10.014;2022-09-24T01:37:06;11.20;99.90
10070;DHT22;5074;53.720;10.014;2022-09-24T01:39:35;11.20;99.90
10070;DHT22;5074;53.720;10.014;2022-09-24T01:42:04;11.20;99.90
10070;DHT22;5074;53.720;10.014;2022-09-24T01:44:36;11.20;99.90
10070;DHT22;5074;53.720;10.014;2022-09-24T01:47:09;11.20;99.90
10070;DHT22;5074;53.720;10.014;2022-09-24T01:49:43;11.20;99.90
10070;DHT22;5074;53.720;10.014;2022-09-24T01:52:14;11.20;99.90
10070;DHT22;5074;53.720;10.014;2022-09-24T01:54:46;11.20;99.90
10070;DHT22;5074;53.720;10.014;2022-09-24T01:57:19;11.20;99.90
10070;DHT22;5074;53.720;10.014;2022-09-24T01:59:53;11.20;99.90
10070;DHT22;5074;53.720;10.014;2022-09-24T02:02:27;11.20;99.90
10070;DHT22;5074;53.720;10.014;2022-09-24T02:05:01;11.10;99.90
10070;DHT22;5074;53.720;10.014;2022-09-24T02:07:34;11.10;99.90
10070;DHT22;5074;53.720;10.014;2022-09-24T02:10:08;11.10;99.90
10070;DHT22;5074;53.720;10.014;2022-09-24T02:12:40;11.20;99.90
10070;DHT22;5074;53.720;10.014;2022-09-24T02:15:14;11.20;99.90
10070;DHT22;5074;53.720;10.014;2022-09-24T02:17:47;11.20;99.90
10070;DHT22;5074;53.720;10.014;2022-09-24T02:20:21;11.20;99.90
10070;DHT22;5074;53.720;10.014;2022-09-24T02:22:53;11.20;99.90
10070;DHT22;5074;53.720;10.014;2022-09-24T02:25:24;11.30;99.90
10070;DHT22;5074;53.720;10.014;2022-09-24T02:27:57;11.30;99.90
10070;DHT22;5074;53.720;10.014;2022-09-24T02:30:27;11.30;99.90
10070;DHT22;5074;53.720;10.014;2022-09-24T02:32:57;11.30;99.90
10070;DHT22;5074;53.720;10.014;2022-09-24T02:35:26;11.20;99.90
10070;DHT22;5074;53.720;10.014;2022-09-24T02:37:53;11.10;99.90
10070;DHT22;5074;53.720;10.014;2022-09-24T02:40:21;11.10;99.90
10070;DHT22;5074;53.720;10.014;2022-09-24T02:42:49;11.10;99.90
10070;DHT22;5074;53.720;10.014;2022-09-24T02:45:17;11.00;99.90
10070;DHT22;5074;53.720;10.014;2022-09-24T02:47:46;11.00;99.90
10070;DHT22;5074;53.720;10.014;2022-09-24T02:50:14;11.00;99.90
10070;DHT22;5074;53.720;10.014;2022-09-24T02:52:43;11.00;99.90
10070;DHT22;5074;53.720;10.014;2022-09-24T02:55:11;11.00;99.90
10070;DHT22;5074;53.720;10.014;2022-09-24T02:57:39;11.00;99.90
10070;DHT22;5074;53.720;10.014;2022-09-24T03:00:07;10.90;99.90
10070;DHT22;5074;53.720;10.014;2022-09-24T03:02:36;10.90;99.90
10070;DHT22;5074;53.720;10.014;2022-09-24T03:05:06;10.90;99.90
10070;DHT22;5074;53.720;10.014;2022-09-24T03:07:34;11.00;99.90
10070;DHT22;5074;53.720;10.014;2022-09-24T03:10:03;10.90;99.90
10070;DHT22;5074;53.720;10.014;2022-09-24T03:12:31;10.90;99.90
10070;DHT22;5074;53.720;10.014;2022-09-24T03:14:59;11.00;99.90
10070;DHT22;5074;53.720;10.014;2022-09-24T03:17:27;11.00;99.90
10070;DHT22;5074;53.720;10.014;2022-09-24T03:19:56;11.10;99.90
10070;DHT22;5074;53.720;10.014;2022-09-24T03:22:25;11.10;99.90
10070;DHT22;5074;53.720;10.014;2022-09-24T03:24:53;11.00;99.90
10070;DHT22;5074;53.720;10.014;2022-09-24T03:27:21;11.10;99.90
10070;DHT22;5074;53.720;10.014;2022-09-24T03:29:49;11.10;99.90
10070;DHT22;5074;53.720;10.014;2022-09-24T03:32:35;11.10;99.90
10070;DHT22;5074;53.720;10.014;2022-09-24T03:35:04;11.10;99.90
10070;DHT22;5074;53.720;10.014;2022-09-24T03:37:36;11.10;99.90
10070;DHT22;5074;53.720;10.014;2022-09-24T03:40:04;11.10;99.90
10070;DHT22;5074;53.720;10.014;2022-09-24T03:42:33;11.10;99.90
10070;DHT22;5074;53.720;10.014;2022-09-24T03:45:02;11.10;99.90
10070;DHT22;5074;53.720;10.014;2022-09-24T03:47:30;11.00;99.90
10070;DHT22;5074;53.720;10.014;2022-09-24T03:49:59;11.00;99.90
10070;DHT22;5074;53.720;10.014;2022-09-24T03:52:28;10.90;99.90
10070;DHT22;5074;53.720;10.014;2022-09-24T03:54:57;10.90;99.90
10070;DHT22;5074;53.720;10.014;2022-09-24T03:57:25;10.90;99.90
10070;DHT22;5074;53.720;10.014;2022-09-24T03:59:53;11.00;99.90
10070;DHT22;5074;53.720;10.014;2022-09-24T04:02:21;10.90;99.90
10070;DHT22;5074;53.720;10.014;2022-09-24T04:04:49;11.00;99.90
10070;DHT22;5074;53.720;10.014;2022-09-24T04:07:17;11.00;99.90
10070;DHT22;5074;53.720;10.014;2022-09-24T04:09:45;11.00;99.90
10070;DHT22;5074;53.720;10.014;2022-09-24T04:12:15;11.10;99.90
10070;DHT22;5074;53.720;10.014;2022-09-24T04:14:43;11.10;99.90
10070;DHT22;5074;53.720;10.014;2022-09-24T04:17:11;11.20;99.90
10070;DHT22;5074;53.720;10.014;2022-09-24T04:19:39;11.20;99.90
10070;DHT22;5074;53.720;10.014;2022-09-24T04:22:07;11.20;99.90
10070;DHT22;5074;53.720;10.014;2022-09-24T04:24:35;11.30;99.90
10070;DHT22;5074;53.720;10.014;2022-09-24T04:27:03;11.30;99.90
10070;DHT22;5074;53.720;10.014;2022-09-24T04:29:33;11.30;99.90
10070;DHT22;5074;53.720;10.014;2022-09-24T04:32:01;11.30;99.90
10070;DHT22;5074;53.720;10.014;2022-09-24T04:34:29;11.30;99.90
10070;DHT22;5074;53.720;10.014;2022-09-24T04:36:57;11.30;99.90
10070;DHT22;5074;53.720;10.014;2022-09-24T04:39:25;11.30;99.90
10070;DHT22;5074;53.720;10.014;2022-09-24T04:41:53;11.30;99.90
10070;DHT22;5074;53.720;10.014;2022-09-24T04:44:21;11.30;99.90
10070;DHT22;5074;53.720;10.014;2022-09-24T04:46:51;11.30;99.90
10070;DHT22;5074;53.720;10.014;2022-09-24T04:49:21;11.30;99.90
10070;DHT22;5074;53.720;10.014;2022-09-24T04:51:49;11.30;99.90
10070;DHT22;5074;53.720;10.014;2022-09-24T04:54:17;11.30;99.90
10070;DHT22;5074;53.720;10.014;2022-09-24T04:56:46;11.30;99.90
10070;DHT22;5074;53.720;10.014;2022-09-24T04:59:14;11.30;99.90
10070;DHT22;5074;53.720;10.014;2022-09-24T05:01:42;11.30;99.90
10070;DHT22;5074;53.720;10.014;2022-09-24T05:04:13;11.30;99.90
10070;DHT22;5074;53.720;10.014;2022-09-24T05:06:41;11.30;99.90
10070;DHT22;5074;53.720;10.014;2022-09-24T05:09:09;11.40;99.90
10070;DHT22;5074;53.720;10.014;2022-09-24T05:11:38;11.40;99.90
10070;DHT22;5074;53.720;10.014;2022-09-24T05:14:06;11.40;99.90
10070;DHT22;5074;53.720;10.014;2022-09-24T05:16:34;11.30;99.90
10070;DHT22;5074;53.720;10.014;2022-09-24T05:19:02;11.30;99.90
10070;DHT22;5074;53.720;10.014;2022-09-24T05:21:32;11.30;99.90
10070;DHT22;5074;53.720;10.014;2022-09-24T05:24:00;11.30;99.90
10070;DHT22;5074;53.720;10.014;2022-09-24T05:26:28;11.30;99.90
10070;DHT22;5074;53.720;10.014;2022-09-24T05:29:14;11.30;99.90
10070;DHT22;5074;53.720;10.014;2022-09-24T05:31:42;11.20;99.90
10070;DHT22;5074;53.720;10.014;2022-09-24T05:34:10;11.20;99.90
10070;DHT22;5074;53.720;10.014;2022-09-24T05:36:41;11.30;99.90
10070;DHT22;5074;53.720;10.014;2022-09-24T05:39:09;11.20;99.90
10070;DHT22;5074;53.720;10.014;2022-09-24T05:41:38;11.20;99.90
10070;DHT22;5074;53.720;10.014;2022-09-24T05:44:06;11.20;99.90
10070;DHT22;5074;53.720;10.014;2022-09-24T05:46:36;11.20;99.90
10070;DHT22;5074;53.720;10.014;2022-09-24T05:49:04;11.30;99.90
10070;DHT22;5074;53.720;10.014;2022-09-24T05:51:33;11.30;99.90
10070;DHT22;5074;53.720;10.014;2022-09-24T05:54:02;11.30;99.90
10070;DHT22;5074;53.720;10.014;2022-09-24T05:56:30;11.30;99.90
10070;DHT22;5074;53.720;10.014;2022-09-24T05:58:58;11.30;99.90
10070;DHT22;5074;53.720;10.014;2022-09-24T06:01:27;11.40;99.90
10070;DHT22;5074;53.720;10.014;2022-09-24T06:03:56;11.40;99.90
10070;DHT22;5074;53.720;10.014;2022-09-24T06:06:29;11.50;99.90
10070;DHT22;5074;53.720;10.014;2022-09-24T06:08:56;11.50;99.90
10070;DHT22;5074;53.720;10.014;2022-09-24T06:11:26;11.50;99.90
10070;DHT22;5074;53.720;10.014;2022-09-24T06:14:05;11.60;99.90
10070;DHT22;5074;53.720;10.014;2022-09-24T06:16:34;11.60;99.90
10070;DHT22;5074;53.720;10.014;2022-09-24T06:19:02;11.60;99.90
10070;DHT22;5074;53.720;10.014;2022-09-24T06:21:31;11.60;99.90
10070;DHT22;5074;53.720;10.014;2022-09-24T06:23:59;11.60;99.90
10070;DHT22;5074;53.720;10.014;2022-09-24T06:26:28;11.60;99.90
10070;DHT22;5074;53.720;10.014;2022-09-24T06:28:56;11.60;99.90
10070;DHT22;5074;53.720;10.014;2022-09-24T06:31:30;11.60;99.90
10070;DHT22;5074;53.720;10.014;2022-09-24T06:34:00;11.60;99.90
10070;DHT22;5074;53.720;10.014;2022-09-24T06:36:29;11.60;99.90
10070;DHT22;5074;53.720;10.014;2022-09-24T06:38:57;11.60;99.90
10070;DHT22;5074;53.720;10.014;2022-09-24T06:41:25;11.60;99.90
10070;DHT22;5074;53.720;10.014;2022-09-24T06:43:54;11.70;99.90
10070;DHT22;5074;53.720;10.014;2022-09-24T06:46:22;11.70;99.90
10070;DHT22;5074;53.720;10.014;2022-09-24T06:48:51;11.70;99.90
10070;DHT22;5074;53.720;10.014;2022-09-24T06:51:20;11.70;99.90
10070;DHT22;5074;53.720;10.014;2022-09-24T06:53:49;11.70;99.90
10070;DHT22;5074;53.720;10.014;2022-09-24T06:56:17;11.70;99.90
10070;DHT22;5074;53.720;10.014;2022-09-24T06:58:46;11.70;99.90
10070;DHT22;5074;53.720;10.014;2022-09-24T07:01:15;11.70;99.90
10070;DHT22;5074;53.720;10.014;2022-09-24T07:03:43;11.70;99.90
10070;DHT22;5074;53.720;10.014;2022-09-24T07:06:11;11.80;99.90
10070;DHT22;5074;53.720;10.014;2022-09-24T07:08:39;11.70;99.90
10070;DHT22;5074;53.720;10.014;2022-09-24T07:11:07;11.70;99.90
10070;DHT22;5074;53.720;10.014;2022-09-24T07:13:35;11.70;99.90
10070;DHT22;5074;53.720;10.014;2022-09-24T07:16:03;11.70;99.90
10070;DHT22;5074;53.720;10.014;2022-09-24T07:18:33;11.80;99.90
10070;DHT22;5074;53.720;10.014;2022-09-24T07:21:03;11.80;99.90
10070;DHT22;5074;53.720;10.014;2022-09-24T07:23:31;11.80;99.90
10070;DHT22;5074;53.720;10.014;2022-09-24T07:25:59;11.80;99.90
10070;DHT22;5074;53.720;10.014;2022-09-24T07:28:27;11.80;99.90
10070;DHT22;5074;53.720;10.014;2022-09-24T07:30:55;11.80;99.90
10070;DHT22;5074;53.720;10.014;2022-09-24T07:33:25;11.80;99.90
10070;DHT22;5074;53.720;10.014;2022-09-24T07:35:54;11.80;99.90
10070;DHT22;5074;53.720;10.014;2022-09-24T07:38:22;11.80;99.90
10070;DHT22;5074;53.720;10.014;2022-09-24T07:40:51;11.80;99.90
10070;DHT22;5074;53.720;10.014;2022-09-24T07:43:23;11.80;99.90
10070;DHT22;5074;53.720;10.014;2022-09-24T07:45:56;11.80;99.90
10070;DHT22;5074;53.720;10.014;2022-09-24T07:48:24;11.80;99.90
10070;DHT22;5074;53.720;10.014;2022-09-24T07:50:52;11.80;99.90
10070;DHT22;5074;53.720;10.014;2022-09-24T07:53:22;11.80;99.90
10070;DHT22;5074;53.720;10.014;2022-09-24T07:55:50;11.80;99.90
10070;DHT22;5074;53.720;10.014;2022-09-24T07:58:19;11.90;99.90
10070;DHT22;5074;53.720;10.014;2022-09-24T08:00:47;11.90;99.90
10070;DHT22;5074;53.720;10.014;2022-09-24T08:03:15;11.80;99.90
10070;DHT22;5074;53.720;10.014;2022-09-24T08:05:43;11.80;99.90
10070;DHT22;5074;53.720;10.014;2022-09-24T08:08:12;11.90;99.90
10070;DHT22;5074;53.720;10.014;2022-09-24T08:10:42;11.90;99.90
10070;DHT22;5074;53.720;10.014;2022-09-24T08:13:10;11.90;99.90
10070;DHT22;5074;53.720;10.014;2022-09-24T08:15:38;11.90;99.90
10070;DHT22;5074;53.720;10.014;2022-09-24T08:18:07;11.90;99.90
10070;DHT22;5074;53.720;10.014;2022-09-24T08:20:35;11.90;99.90
10070;DHT22;5074;53.720;10.014;2022-09-24T08:23:05;11.90;99.90
10070;DHT22;5074;53.720;10.014;2022-09-24T08:25:35;11.90;99.90
10070;DHT22;5074;53.720;10.014;2022-09-24T08:28:05;11.90;99.90
10070;DHT22;5074;53.720;10.014;2022-09-24T08:30:34;11.90;99.90
10070;DHT22;5074;53.720;10.014;2022-09-24T08:33:02;11.90;99.90
10070;DHT22;5074;53.720;10.014;2022-09-24T08:35:32;11.90;99.90
10070;DHT22;5074;53.720;10.014;2022-09-24T08:38:00;11.90;99.90
10070;DHT22;5074;53.720;10.014;2022-09-24T08:40:29;11.90;99.90
10070;DHT22;5074;53.720;10.014;2022-09-24T08:43:01;11.90;99.90
10070;DHT22;5074;53.720;10.014;2022-09-24T08:45:40;11.90;99.90
10070;DHT22;5074;53.720;10.014;2022-09-24T08:48:29;12.00;99.90
10070;DHT22;5074;53.720;10.014;2022-09-24T08:51:03;12.00;99.90
10070;DHT22;5074;53.720;10.014;2022-09-24T08:53:38;12.00;99.90
10070;DHT22;5074;53.720;10.014;2022-09-24T08:56:13;12.10;99.90
10070;DHT22;5074;53.720;10.014;2022-09-24T08:58:49;12.10;99.90
10070;DHT22;5074;53.720;10.014;2022-09-24T09:01:23;12.10;99.90
10070;DHT22;5074;53.720;10.014;2022-09-24T09:04:04;12.10;99.90
10070;DHT22;5074;53.720;10.014;2022-09-24T09:06:48;12.10;99.90
10070;DHT22;5074;53.720;10.014;2022-09-24T09:09:31;12.20;99.90
10070;DHT22;5074;53.720;10.014;2022-09-24T09:12:10;12.10;99.90
10070;DHT22;5074;53.720;10.014;2022-09-24T09:14:44;12.20;99.90
10070;DHT22;5074;53.720;10.014;2022-09-24T09:17:23;12.20;99.90
10070;DHT22;5074;53.720;10.014;2022-09-24T09:19:59;12.30;99.90
10070;DHT22;5074;53.720;10.014;2022-09-24T09:22:33;12.30;99.90
10070;DHT22;5074;53.720;10.014;2022-09-24T09:25:09;12.30;99.90
10070;DHT22;5074;53.720;10.014;2022-09-24T09:27:44;12.30;99.90
10070;DHT22;5074;53.720;10.014;2022-09-24T09:30:15;12.30;99.90
10070;DHT22;5074;53.720;10.014;2022-09-24T09:32:49;12.40;99.90
10070;DHT22;5074;53.720;10.014;2022-09-24T09:35:40;12.40;99.90
10070;DHT22;5074;53.720;10.014;2022-09-24T09:38:14;12.40;99.90
10070;DHT22;5074;53.720;10.014;2022-09-24T09:40:51;12.40;99.90
10070;DHT22;5074;53.720;10.014;2022-09-24T09:43:27;12.50;99.90
10070;DHT22;5074;53.720;10.014;2022-09-24T09:46:00;12.50;99.90
10070;DHT22;5074;53.720;10.014;2022-09-24T09:48:40;12.50;99.90
10070;DHT22;5074;53.720;10.014;2022-09-24T09:51:14;12.60;99.90
10070;DHT22;5074;53.720;10.014;2022-09-24T09:53:55;12.60;99.90
10070;DHT22;5074;53.720;10.014;2022-09-24T09:56:25;12.60;99.90
10070;DHT22;5074;53.720;10.014;2022-09-24T09:59:03;12.70;99.90
10070;DHT22;5074;53.720;10.014;2022-09-24T10:01:35;12.70;99.90
10070;DHT22;5074;53.720;10.014;2022-09-24T10:04:06;12.70;99.90
10070;DHT22;5074;53.720;10.014;2022-09-24T10:07:02;12.80;99.90
10070;DHT22;5074;53.720;10.014;2022-09-24T10:09:30;12.80;99.90
10070;DHT22;5074;53.720;10.014;2022-09-24T10:12:05;12.90;99.90
10070;DHT22;5074;53.720;10.014;2022-09-24T10:14:35;12.90;99.90
10070;DHT22;5074;53.720;10.014;2022-09-24T10:17:04;13.00;99.90
10070;DHT22;5074;53.720;10.014;2022-09-24T10:19:33;13.00;99.90
10070;DHT22;5074;53.720;10.014;2022-09-24T10:22:08;13.00;99.90
10070;DHT22;5074;53.720;10.014;2022-09-24T10:24:40;12.90;99.90
10070;DHT22;5074;53.720;10.014;2022-09-24T10:27:10;12.90;99.90
10070;DHT22;5074;53.720;10.014;2022-09-24T10:29:39;12.90;99.90
10070;DHT22;5074;53.720;10.014;2022-09-24T10:32:26;12.90;99.90
10070;DHT22;5074;53.720;10.014;2022-09-24T10:34:56;12.80;99.90
10070;DHT22;5074;53.720;10.014;2022-09-24T10:39:57;12.90;99.90
10070;DHT22;5074;53.720;10.014;2022-09-24T10:42:26;12.90;99.90
10070;DHT22;5074;53.720;10.014;2022-09-24T10:44:57;12.90;99.90
10070;DHT22;5074;53.720;10.014;2022-09-24T10:47:30;12.80;99.90
10070;DHT22;5074;53.720;10.014;2022-09-24T10:50:10;12.80;99.90
10070;DHT22;5074;53.720;10.014;2022-09-24T10:52:52;12.80;99.90
10070;DHT22;5074;53.720;10.014;2022-09-24T10:55:25;12.80;99.90
10070;DHT22;5074;53.720;10.014;2022-09-24T10:58:18;12.80;99.90
10070;DHT22;5074;53.720;10.014;2022-09-24T11:00:55;12.90;99.90
10070;DHT22;5074;53.720;10.014;2022-09-24T11:06:55;13.00;99.90
10070;DHT22;5074;53.720;10.014;2022-09-24T11:09:36;13.10;99.90
10070;DHT22;5074;53.720;10.014;2022-09-24T11:12:14;13.20;99.90
10070;DHT22;5074;53.720;10.014;2022-09-24T11:14:54;13.30;99.90
10070;DHT22;5074;53.720;10.014;2022-09-24T11:17:37;13.30;99.90
10070;DHT22;5074;53.720;10.014;2022-09-24T11:20:13;13.30;99.90
10070;DHT22;5074;53.720;10.014;2022-09-24T11:25:55;13.30;99.90
10070;DHT22;5074;53.720;10.014;2022-09-24T11:28:42;13.30;99.90
10070;DHT22;5074;53.720;10.014;2022-09-24T11:31:30;13.40;99.90
10070;DHT22;5074;53.720;10.014;2022-09-24T11:34:09;13.40;99.90
10070;DHT22;5074;53.720;10.014;2022-09-24T11:36:54;13.50;99.90
10070;DHT22;5074;53.720;10.014;2022-09-24T11:39:42;13.60;99.90
10070;DHT22;5074;53.720;10.014;2022-09-24T11:42:23;13.60;99.90
10070;DHT22;5074;53.720;10.014;2022-09-24T11:45:06;13.60;99.90
10070;DHT22;5074;53.720;10.014;2022-09-24T11:50:53;13.70;99.90
10070;DHT22;5074;53.720;10.014;2022-09-24T11:53:30;13.60;99.90
10070;DHT22;5074;53.720;10.014;2022-09-24T11:56:06;13.70;99.90
10070;DHT22;5074;53.720;10.014;2022-09-24T11:58:41;13.70;99.90
10070;DHT22;5074;53.720;10.014;2022-09-24T12:01:12;13.70;99.90
10070;DHT22;5074;53.720;10.014;2022-09-24T12:03:45;13.60;99.90
10070;DHT22;5074;53.720;10.014;2022-09-24T12:06:20;13.50;99.90
10070;DHT22;5074;53.720;10.014;2022-09-24T12:08:52;13.50;99.90
10070;DHT22;5074;53.720;10.014;2022-09-24T12:11:31;13.40;99.90
10070;DHT22;5074;53.720;10.014;2022-09-24T12:14:02;13.40;99.90
10070;DHT22;5074;53.720;10.014;2022-09-24T12:16:39;13.30;99.90
10070;DHT22;5074;53.720;10.014;2022-09-24T12:19:11;13.30;99.90
10070;DHT22;5074;53.720;10.014;2022-09-24T12:21:47;13.20;99.90
10070;DHT22;5074;53.720;10.014;2022-09-24T12:24:20;13.20;99.90
10070;DHT22;5074;53.720;10.014;2022-09-24T12:26:56;13.20;99.90
10070;DHT22;5074;53.720;10.014;2022-09-24T12:29:31;13.20;99.90
10070;DHT22;5074;53.720;10.014;2022-09-24T12:32:23;13.20;99.90
10070;DHT22;5074;53.720;10.014;2022-09-24T12:35:18;13.20;99.90
10070;DHT22;5074;53.720;10.014;2022-09-24T12:37:57;13.20;99.90
10070;DHT22;5074;53.720;10.014;2022-09-24T12:40:35;13.10;99.90
10070;DHT22;5074;53.720;10.014;2022-09-24T12:43:26;13.10;99.90
10070;DHT22;5074;53.720;10.014;2022-09-24T12:46:00;13.20;99.90
10070;DHT22;5074;53.720;10.014;2022-09-24T12:48:32;13.20;99.90
10070;DHT22;5074;53.720;10.014;2022-09-24T12:51:04;13.10;99.90
10070;DHT22;5074;53.720;10.014;2022-09-24T12:53:36;13.10;99.90
10070;DHT22;5074;53.720;10.014;2022-09-24T12:56:08;13.10;99.90
10070;DHT22;5074;53.720;10.014;2022-09-24T12:58:39;13.10;99.90
10070;DHT22;5074;53.720;10.014;2022-09-24T13:01:12;13.10;99.90
10070;DHT22;5074;53.720;10.014;2022-09-24T13:04:00;13.10;99.90
10070;DHT22;5074;53.720;10.014;2022-09-24T13:06:32;13.10;99.90
10070;DHT22;5074;53.720;10.014;2022-09-24T13:09:02;13.10;99.90
10070;DHT22;5074;53.720;10.014;2022-09-24T13:11:59;13.10;99.90
10070;DHT22;5074;53.720;10.014;2022-09-24T13:14:30;13.20;99.90
10070;DHT22;5074;53.720;10.014;2022-09-24T13:17:03;13.20;99.90
10070;DHT22;5074;53.720;10.014;2022-09-24T13:19:34;13.30;99.90
10070;DHT22;5074;53.720;10.014;2022-09-24T13:22:16;13.30;99.90
10070;DHT22;5074;53.720;10.014;2022-09-24T13:24:49;13.40;99.90
10070;DHT22;5074;53.720;10.014;2022-09-24T13:27:19;13.50;99.90
10070;DHT22;5074;53.720;10.014;2022-09-24T13:30:01;13.50;99.90
10070;DHT22;5074;53.720;10.014;2022-09-24T13:32:33;13.50;99.90
10070;DHT22;5074;53.720;10.014;2022-09-24T13:35:07;13.60;99.90
10070;DHT22;5074;53.720;10.014;2022-09-24T13:37:48;13.60;99.90
10070;DHT22;5074;53.720;10.014;2022-09-24T13:40:21;13.70;99.90
10070;DHT22;5074;53.720;10.014;2022-09-24T13:42:54;13.70;99.90
10070;DHT22;5074;53.720;10.014;2022-09-24T13:45:30;13.70;99.90
10070;DHT22;5074;53.720;10.014;2022-09-24T13:48:03;13.80;99.90
10070;DHT22;5074;53.720;10.014;2022-09-24T13:50:32;13.80;99.90
10070;DHT22;5074;53.720;10.014;2022-09-24T13:53:04;13.80;99.90
10070;DHT22;5074;53.720;10.014;2022-09-24T13:55:42;13.70;99.90
10070;DHT22;5074;53.720;10.014;2022-09-24T13:58:24;13.80;99.90
10070;DHT22;5074;53.720;10.014;2022-09-24T14:00:54;13.80;99.90
10070;DHT22;5074;53.720;10.014;2022-09-24T14:03:25;13.80;99.90
10070;DHT22;5074;53.720;10.014;2022-09-24T14:05:57;13.80;99.90
10070;DHT22;5074;53.720;10.014;2022-09-24T14:08:27;13.80;99.90
10070;DHT22;5074;53.720;10.014;2022-09-24T14:11:05;13.80;99.90
10070;DHT22;5074;53.720;10.014;2022-09-24T14:13:39;13.80;99.90
10070;DHT22;5074;53.720;10.014;2022-09-24T14:16:14;13.80;99.90
10070;DHT22;5074;53.720;10.014;2022-09-24T14:18:44;13.80;99.90
10070;DHT22;5074;53.720;10.014;2022-09-24T14:21:14;13.70;99.90
10070;DHT22;5074;53.720;10.014;2022-09-24T14:23:48;13.70;99.90
10070;DHT22;5074;53.720;10.014;2022-09-24T14:26:23;13.70;99.90
10070;DHT22;5074;53.720;10.014;2022-09-24T14:28:54;13.70;99.90
10070;DHT22;5074;53.720;10.014;2022-09-24T14:31:26;13.70;99.90
10070;DHT22;5074;53.720;10.014;2022-09-24T14:33:54;13.70;99.90
10070;DHT22;5074;53.720;10.014;2022-09-24T14:36:23;13.70;99.90
10070;DHT22;5074;53.720;10.014;2022-09-24T14:38:55;13.70;99.90
10070;DHT22;5074;53.720;10.014;2022-09-24T14:41:28;13.70;99.90
10070;DHT22;5074;53.720;10.014;2022-09-24T14:43:58;13.70;99.90
10070;DHT22;5074;53.720;10.014;2022-09-24T14:46:31;13.70;99.90
10070;DHT22;5074;53.720;10.014;2022-09-24T14:49:05;13.70;99.90
10070;DHT22;5074;53.720;10.014;2022-09-24T14:51:49;13.70;99.90
10070;DHT22;5074;53.720;10.014;2022-09-24T14:54:18;13.60;99.90
10070;DHT22;5074;53.720;10.014;2022-09-24T14:56:54;13.60;99.90
10070;DHT22;5074;53.720;10.014;2022-09-24T14:59:26;13.70;99.90
10070;DHT22;5074;53.720;10.014;2022-09-24T15:02:05;13.70;99.90
10070;DHT22;5074;53.720;10.014;2022-09-24T15:04:43;13.70;99.90
10070;DHT22;5074;53.720;10.014;2022-09-24T15:07:17;13.60;99.90
10070;DHT22;5074;53.720;10.014;2022-09-24T15:09:48;13.60;99.90
10070;DHT22;5074;53.720;10.014;2022-09-24T15:12:19;13.50;99.90
10070;DHT22;5074;53.720;10.014;2022-09-24T15:14:54;13.50;99.90
10070;DHT22;5074;53.720;10.014;2022-09-24T15:17:29;13.50;99.90
10070;DHT22;5074;53.720;10.014;2022-09-24T15:19:58;13.50;99.90
10070;DHT22;5074;53.720;10.014;2022-09-24T15:22:27;13.50;99.90
10070;DHT22;5074;53.720;10.014;2022-09-24T15:24:56;13.50;99.90
10070;DHT22;5074;53.720;10.014;2022-09-24T15:27:28;13.40;99.90
10070;DHT22;5074;53.720;10.014;2022-09-24T15:29:58;13.40;99.90
10070;DHT22;5074;53.720;10.014;2022-09-24T15:32:29;13.40;99.90
10070;DHT22;5074;53.720;10.014;2022-09-24T15:35:00;13.40;99.90
10070;DHT22;5074;53.720;10.014;2022-09-24T15:37:34;13.40;99.90
10070;DHT22;5074;53.720;10.014;2022-09-24T15:40:06;13.40;99.90
10070;DHT22;5074;53.720;10.014;2022-09-24T15:42:36;13.40;99.90
10070;DHT22;5074;53.720;10.014;2022-09-24T15:45:06;13.30;99.90
10070;DHT22;5074;53.720;10.014;2022-09-24T15:47:43;13.30;99.90
10070;DHT22;5074;53.720;10.014;2022-09-24T15:50:11;13.30;99.90
10070;DHT22;5074;53.720;10.014;2022-09-24T15:52:41;13.30;99.90
10070;DHT22;5074;53.720;10.014;2022-09-24T15:55:13;13.30;99.90
10070;DHT22;5074;53.720;10.014;2022-09-24T15:57:44;13.30;99.90
10070;DHT22;5074;53.720;10.014;2022-09-24T16:00:14;13.30;99.90
10070;DHT22;5074;53.720;10.014;2022-09-24T16:02:45;13.30;99.90
10070;DHT22;5074;53.720;10.014;2022-09-24T16:05:17;13.30;99.90
10070;DHT22;5074;53.720;10.014;2022-09-24T16:07:46;13.30;99.90
10070;DHT22;5074;53.720;10.014;2022-09-24T16:10:14;13.30;99.90
10070;DHT22;5074;53.720;10.014;2022-09-24T16:12:42;13.30;99.90
10070;DHT22;5074;53.720;10.014;2022-09-24T16:15:11;13.30;99.90
10070;DHT22;5074;53.720;10.014;2022-09-24T16:17:40;13.30;99.90
10070;DHT22;5074;53.720;10.014;2022-09-24T16:20:09;13.30;99.90
10070;DHT22;5074;53.720;10.014;2022-09-24T16:22:37;13.30;99.90